Time;durP1;ratioP1;P1;durP2;ratioP2;P2;SDS_P1;SDS_P2;PMS_P1;PMS_P2;Temp;Humidity;BMP_temperature;BMP_pressure;BME280_temperature;BME280_humidity;BME280_pressure;Samples;Min_cycle;Max_cycle;Signal;HPM_P1;HPM_P2
2021/04/30 00:24:13;;;;;;;7.85;7.05;;;8.20;96.90;;;;;;4784243;29;20282;-85
2021/04/30 00:36:09;;;;;;;8.23;7.53;;;8.30;96.20;;;;;;4759343;30;20214;-86
2021/04/30 00:45:27;;;;;;;;;;;;;;;;;;;;;
2021/04/30 01:18:23;;;;;;;;;;;;;;;;;;;;;
2021/04/30 01:29:52;;;;;;;9.38;8.57;;;8.30;94.90;;;;;;4675389;30;20249;-85
2021/04/30 01:32:20;;;;;;;8.73;7.78;;;8.30;94.30;;;;;;4790707;29;20232;-86
2021/04/30 01:34:46;;;;;;;7.65;7.05;;;8.30;94.20;;;;;;4848818;29;20216;-85
2021/04/30 01:37:12;;;;;;;8.80;7.85;;;8.30;94.40;;;;;;4870406;29;20212;-86
2021/04/30 01:39:40;;;;;;;8.77;7.97;;;8.30;94.30;;;;;;4869929;29;20624;-85
2021/04/30 01:42:07;;;;;;;8.27;7.45;;;8.40;94.20;;;;;;4869198;29;20224;-86
2021/04/30 01:44:34;;;;;;;8.98;7.55;;;8.50;94.00;;;;;;4869779;29;20224;-86
2021/04/30 01:47:01;;;;;;;8.88;8.10;;;8.50;94.00;;;;;;4869394;29;20852;-86
2021/04/30 01:49:28;;;;;;;8.80;7.90;;;8.60;93.80;;;;;;4869913;29;20233;-86
2021/04/30 01:51:55;;;;;;;9.52;8.75;;;8.70;93.60;;;;;;4869095;29;20720;-86
2021/04/30 01:54:21;;;;;;;8.55;7.70;;;8.70;93.40;;;;;;4869724;29;20213;-85
2021/04/30 01:56:47;;;;;;;8.63;7.82;;;8.70;93.30;;;;;;4869246;29;20213;-86
2021/04/30 01:59:14;;;;;;;10.50;9.52;;;8.70;93.00;;;;;;4869698;29;20209;-85
2021/04/30 02:01:40;;;;;;;8.82;7.85;;;8.60;93.10;;;;;;4868596;29;20889;-86
2021/04/30 02:04:10;;;;;;;8.82;8.07;;;8.60;93.20;;;;;;4869476;29;20216;-86
2021/04/30 02:06:38;;;;;;;11.40;9.35;;;8.50;93.20;;;;;;4871983;29;20250;-86
2021/04/30 02:09:14;;;;;;;9.38;8.48;;;8.40;93.60;;;;;;4872771;29;20226;-85
2021/04/30 02:11:42;;;;;;;9.27;8.35;;;8.30;94.10;;;;;;4872404;29;20257;-86
2021/04/30 02:14:19;;;;;;;10.90;9.80;;;8.30;94.30;;;;;;4872903;29;20217;-85
2021/04/30 02:16:47;;;;;;;10.35;9.35;;;8.40;94.30;;;;;;4872480;29;20224;-86
2021/04/30 02:19:15;;;;;;;11.68;10.57;;;8.40;94.20;;;;;;4872496;29;20209;-85
2021/04/30 02:21:43;;;;;;;11.20;10.07;;;8.30;94.30;;;;;;4873130;29;20244;-85
2021/04/30 02:24:10;;;;;;;11.43;10.23;;;8.20;95.20;;;;;;4874199;29;20209;-86
2021/04/30 02:26:36;;;;;;;12.60;11.30;;;8.00;97.30;;;;;;4873586;29;20220;-85
2021/04/30 02:29:02;;;;;;;12.30;11.02;;;7.90;97.80;;;;;;4873432;29;20236;-85
2021/04/30 02:31:29;;;;;;;10.68;9.68;;;7.80;99.00;;;;;;4871994;29;20243;-85
2021/04/30 02:33:55;;;;;;;12.10;10.90;;;7.70;99.40;;;;;;4872057;29;20212;-85
2021/04/30 02:36:24;;;;;;;13.95;10.73;;;7.50;99.50;;;;;;4871420;29;20233;-85
2021/04/30 02:38:51;;;;;;;13.25;11.27;;;7.50;99.90;;;;;;4871421;29;20248;-85
2021/04/30 02:41:18;;;;;;;12.95;11.60;;;7.50;99.90;;;;;;4870807;29;20213;-85
2021/04/30 02:43:44;;;;;;;11.90;10.70;;;7.60;99.90;;;;;;4869654;29;20247;-85
2021/04/30 02:46:10;;;;;;;14.57;12.75;;;7.70;99.90;;;;;;4869909;29;20246;-85
2021/04/30 02:48:37;;;;;;;12.07;10.93;;;7.90;99.90;;;;;;4870352;29;20687;-85
2021/04/30 02:51:08;;;;;;;14.50;13.10;;;8.00;99.90;;;;;;4869872;29;20306;-85
2021/04/30 02:53:35;;;;;;;13.32;11.93;;;8.10;99.90;;;;;;4869333;29;20243;-85
2021/04/30 02:56:01;;;;;;;11.88;10.73;;;8.10;99.90;;;;;;4870164;29;20746;-85
2021/04/30 02:58:28;;;;;;;14.15;12.70;;;8.10;99.60;;;;;;4871123;29;20219;-85
2021/04/30 03:00:54;;;;;;;11.52;10.32;;;8.10;99.50;;;;;;4870185;29;20228;-85
2021/04/30 03:03:23;;;;;;;14.18;12.68;;;8.00;99.00;;;;;;4870464;29;20246;-84
2021/04/30 03:05:52;;;;;;;13.50;12.05;;;7.90;98.90;;;;;;4882922;29;20208;-84
2021/04/30 03:08:18;;;;;;;16.33;12.07;;;7.80;99.00;;;;;;4886431;29;20193;-84
2021/04/30 03:10:57;;;;;;;;;;;;;;;;;;;;;
2021/04/30 04:01:08;;;;;;;;;;;;;;;;;;;;;
2021/04/30 04:38:44;;;;;;;12.00;10.65;;;7.60;98.50;;;;;;4636376;30;20581;-86
2021/04/30 04:41:12;;;;;;;11.50;9.85;;;7.60;98.90;;;;;;4747739;29;20299;-85
2021/04/30 04:43:39;;;;;;;11.30;10.20;;;7.60;98.50;;;;;;4845496;29;20224;-85
2021/04/30 04:46:05;;;;;;;13.38;11.75;;;7.60;98.40;;;;;;4870218;29;20208;-85
2021/04/30 04:48:31;;;;;;;11.40;9.88;;;7.60;98.00;;;;;;4870006;29;20208;-86
2021/04/30 04:50:57;;;;;;;10.98;9.82;;;7.60;98.30;;;;;;4870886;29;20634;-86
2021/04/30 04:53:23;;;;;;;12.75;11.45;;;7.80;98.10;;;;;;4870213;29;20256;-85
2021/04/30 04:55:52;;;;;;;11.63;10.13;;;7.90;98.20;;;;;;4871179;29;20223;-85
2021/04/30 04:58:25;;;;;;;10.15;9.10;;;8.00;98.00;;;;;;4870198;29;20274;-86
2021/04/30 05:00:52;;;;;;;10.75;9.73;;;8.10;97.80;;;;;;4870035;29;20217;-86
2021/04/30 05:03:18;;;;;;;10.63;9.63;;;8.20;97.80;;;;;;4869663;29;20231;-86
2021/04/30 05:05:44;;;;;;;9.32;8.48;;;8.20;97.30;;;;;;4870243;29;20215;-86
2021/04/30 05:08:10;;;;;;;10.18;9.07;;;8.30;97.30;;;;;;4870733;29;20265;-86
2021/04/30 05:10:36;;;;;;;11.60;10.20;;;8.40;97.30;;;;;;4871012;29;20292;-85
2021/04/30 05:13:04;;;;;;;9.93;9.10;;;8.40;97.00;;;;;;4871141;29;20236;-85
2021/04/30 05:15:30;;;;;;;11.25;10.25;;;8.40;97.10;;;;;;4871397;29;20213;-85
2021/04/30 05:17:56;;;;;;;11.50;10.23;;;8.40;97.00;;;;;;4871812;29;20224;-85
2021/04/30 05:20:22;;;;;;;10.38;9.40;;;8.50;97.10;;;;;;4871540;29;20691;-86
2021/04/30 05:22:50;;;;;;;9.88;8.95;;;8.50;96.90;;;;;;4870652;29;20233;-86
2021/04/30 05:25:16;;;;;;;10.83;9.77;;;8.60;96.80;;;;;;4870744;29;20225;-86
2021/04/30 05:27:43;;;;;;;12.00;10.90;;;8.60;96.60;;;;;;4870943;29;20462;-86
2021/04/30 05:30:12;;;;;;;14.00;12.45;;;8.70;96.80;;;;;;4870703;29;20229;-86
2021/04/30 05:32:39;;;;;;;14.18;12.07;;;8.70;96.80;;;;;;4870726;29;20237;-86
2021/04/30 05:35:07;;;;;;;14.70;10.30;;;8.70;96.40;;;;;;4872249;29;20217;-86
2021/04/30 05:37:35;;;;;;;11.25;10.00;;;8.80;96.30;;;;;;4871839;29;20213;-86
2021/04/30 05:40:02;;;;;;;14.77;10.93;;;8.80;96.00;;;;;;4874936;29;20229;-86
2021/04/30 05:42:28;;;;;;;10.73;9.63;;;8.70;95.80;;;;;;4872249;29;20226;-87
2021/04/30 05:44:55;;;;;;;12.15;9.80;;;8.70;95.90;;;;;;4869725;29;20213;-87
2021/04/30 05:47:22;;;;;;;12.35;10.98;;;8.80;96.20;;;;;;4870045;29;20213;-87
2021/04/30 05:49:49;;;;;;;19.40;10.87;;;9.00;96.40;;;;;;4870258;29;20232;-87
2021/04/30 05:52:15;;;;;;;10.97;9.97;;;9.20;96.40;;;;;;4869851;29;20535;-87
2021/04/30 05:54:42;;;;;;;11.53;10.40;;;9.30;96.30;;;;;;4870308;29;20454;-87
2021/04/30 05:57:08;;;;;;;11.17;9.53;;;9.40;96.10;;;;;;4870189;29;20474;-87
2021/04/30 05:59:35;;;;;;;11.03;9.53;;;9.50;95.70;;;;;;4871730;29;20465;-87
2021/04/30 06:02:02;;;;;;;11.80;10.60;;;9.60;95.50;;;;;;4871108;29;20479;-86
2021/04/30 06:04:29;;;;;;;11.63;10.53;;;9.60;95.40;;;;;;4870856;29;20471;-87
2021/04/30 06:06:55;;;;;;;12.57;11.43;;;9.60;94.80;;;;;;4873004;29;20856;-86
2021/04/30 06:09:22;;;;;;;12.03;10.93;;;9.60;94.30;;;;;;4877283;29;20231;-87
2021/04/30 06:11:50;;;;;;;11.30;10.10;;;9.80;94.50;;;;;;4872080;29;20499;-87
2021/04/30 06:14:16;;;;;;;13.80;12.47;;;9.90;94.00;;;;;;4875558;29;20468;-85
2021/04/30 06:16:44;;;;;;;10.53;9.53;;;9.70;93.40;;;;;;4879974;29;20495;-86
2021/04/30 06:19:10;;;;;;;11.10;10.00;;;9.80;93.60;;;;;;4870747;29;20512;-87
2021/04/30 06:21:37;;;;;;;12.47;11.27;;;9.90;94.00;;;;;;4872464;29;20472;-87
2021/04/30 06:24:05;;;;;;;14.60;11.13;;;9.90;93.80;;;;;;4877505;29;20459;-86
2021/04/30 06:26:31;;;;;;;13.20;11.10;;;10.00;93.50;;;;;;4881022;29;20456;-87
2021/04/30 06:28:57;;;;;;;12.43;11.20;;;10.00;93.80;;;;;;4875555;29;20463;-86
2021/04/30 06:31:23;;;;;;;12.30;11.10;;;10.10;93.60;;;;;;4872011;29;20512;-87
2021/04/30 06:33:50;;;;;;;15.20;11.33;;;10.10;93.50;;;;;;4868770;29;20858;-87
2021/04/30 06:36:16;;;;;;;12.60;11.43;;;10.10;93.20;;;;;;4868572;29;20829;-87
2021/04/30 06:38:43;;;;;;;12.70;11.20;;;10.10;92.70;;;;;;4868392;29;20471;-86
2021/04/30 06:41:09;;;;;;;11.60;10.47;;;10.00;92.20;;;;;;4869445;29;20458;-86
2021/04/30 06:43:36;;;;;;;11.57;10.43;;;9.90;92.60;;;;;;4867966;29;20493;-83
2021/04/30 06:46:02;;;;;;;10.33;9.43;;;9.80;92.80;;;;;;4867094;29;20454;-83
2021/04/30 06:48:28;;;;;;;10.97;9.87;;;9.70;92.70;;;;;;4868098;29;20467;-83
2021/04/30 06:50:55;;;;;;;10.97;9.70;;;9.60;92.70;;;;;;4867321;29;20491;-83
2021/04/30 06:53:21;;;;;;;10.20;8.60;;;9.50;92.90;;;;;;4867263;29;20574;-82
2021/04/30 06:55:48;;;;;;;11.23;10.13;;;9.30;93.10;;;;;;4867485;29;20455;-82
2021/04/30 06:58:14;;;;;;;11.63;10.63;;;9.40;93.20;;;;;;4867612;29;20846;-82
2021/04/30 07:00:41;;;;;;;11.60;9.30;;;9.40;93.10;;;;;;4867670;29;20214;-82
2021/04/30 07:03:08;;;;;;;11.25;9.90;;;9.50;93.20;;;;;;4866652;29;20233;-80
2021/04/30 07:05:35;;;;;;;11.13;9.65;;;9.50;93.30;;;;;;4865864;29;20213;-82
2021/04/30 07:08:02;;;;;;;9.70;8.90;;;9.30;93.20;;;;;;4866830;29;20217;-83
2021/04/30 07:10:28;;;;;;;11.40;10.25;;;9.40;93.40;;;;;;4877007;29;20236;-84
2021/04/30 07:12:56;;;;;;;11.65;10.50;;;9.40;93.50;;;;;;4893565;29;20235;-84
2021/04/30 07:15:22;;;;;;;12.70;11.30;;;9.40;93.70;;;;;;4897138;29;20201;-83
2021/04/30 07:17:48;;;;;;;9.97;9.10;;;9.40;93.70;;;;;;4902430;29;20453;-83
2021/04/30 07:20:15;;;;;;;11.03;9.97;;;9.50;93.60;;;;;;4902617;29;20469;-83
2021/04/30 07:22:41;;;;;;;14.57;9.73;;;9.40;93.20;;;;;;4904195;29;20514;-84
2021/04/30 07:25:09;;;;;;;12.80;9.73;;;9.50;93.50;;;;;;4903903;29;20471;-84
2021/04/30 07:27:35;;;;;;;13.00;10.30;;;9.50;93.40;;;;;;4904381;29;20224;-84
2021/04/30 07:30:03;;;;;;;11.70;10.50;;;9.60;93.50;;;;;;4903677;29;20493;-84
2021/04/30 07:32:29;;;;;;;12.10;10.77;;;9.70;93.40;;;;;;4904742;29;20473;-84
2021/04/30 07:34:55;;;;;;;11.13;9.73;;;9.70;93.20;;;;;;4903890;29;20874;-83
2021/04/30 07:37:21;;;;;;;11.60;10.40;;;9.80;93.20;;;;;;4904403;29;20449;-84
2021/04/30 07:39:48;;;;;;;10.63;9.60;;;9.80;93.00;;;;;;4904806;29;20462;-84
2021/04/30 07:42:14;;;;;;;11.20;10.10;;;9.70;92.60;;;;;;4904667;29;20516;-84
2021/04/30 07:44:41;;;;;;;12.03;9.83;;;9.90;93.70;;;;;;4904614;29;20467;-80
2021/04/30 07:47:09;;;;;;;10.37;9.37;;;10.00;92.80;;;;;;4903372;29;20459;-80
2021/04/30 07:49:35;;;;;;;10.60;9.50;;;10.10;92.30;;;;;;4903604;29;20578;-81
2021/04/30 07:52:01;;;;;;;11.23;10.23;;;10.10;92.20;;;;;;4902524;29;20480;-81
2021/04/30 07:54:27;;;;;;;11.13;10.00;;;10.00;91.80;;;;;;4903438;29;20461;-81
2021/04/30 07:56:54;;;;;;;12.27;10.20;;;9.90;92.60;;;;;;4902745;29;20469;-81
2021/04/30 07:59:20;;;;;;;10.60;9.47;;;9.90;92.60;;;;;;4903013;29;20453;-81
2021/04/30 08:01:46;;;;;;;11.67;10.67;;;10.00;92.30;;;;;;4901733;29;20478;-81
2021/04/30 08:04:13;;;;;;;14.37;9.10;;;10.00;92.10;;;;;;4902629;29;20468;-81
2021/04/30 08:06:39;;;;;;;9.35;8.40;;;9.90;92.20;;;;;;4903026;29;20458;-81
2021/04/30 08:09:06;;;;;;;10.60;9.50;;;9.80;92.30;;;;;;4902616;29;20212;-81
2021/04/30 08:11:35;;;;;;;10.13;9.13;;;9.80;92.40;;;;;;4901790;29;20521;-81
2021/04/30 08:14:01;;;;;;;10.83;9.83;;;9.70;92.30;;;;;;4902508;29;20462;-81
2021/04/30 08:16:28;;;;;;;10.65;9.65;;;9.70;92.60;;;;;;4902808;29;20458;-81
2021/04/30 08:18:54;;;;;;;9.93;9.03;;;9.70;92.60;;;;;;4902694;29;20214;-81
2021/04/30 08:21:21;;;;;;;10.50;9.50;;;9.60;92.70;;;;;;4902029;29;20592;-81
2021/04/30 08:23:47;;;;;;;11.30;10.20;;;9.60;93.00;;;;;;4901794;29;20465;-81
2021/04/30 08:26:13;;;;;;;11.38;9.85;;;9.50;92.90;;;;;;4901918;29;20874;-81
2021/04/30 08:28:39;;;;;;;10.75;9.93;;;9.30;93.00;;;;;;4905944;29;20208;-79
2021/04/30 08:31:07;;;;;;;10.02;9.02;;;9.20;93.20;;;;;;4906393;29;20240;-79
2021/04/30 08:33:34;;;;;;;10.15;9.20;;;9.30;93.60;;;;;;4906234;29;20371;-79
2021/04/30 08:36:00;;;;;;;10.80;9.80;;;9.30;93.50;;;;;;4905387;29;20217;-80
2021/04/30 08:38:27;;;;;;;10.90;9.80;;;9.20;93.70;;;;;;4902059;29;20213;-81
2021/04/30 08:40:53;;;;;;;11.93;9.90;;;9.30;93.70;;;;;;4901950;29;20453;-80
2021/04/30 08:43:20;;;;;;;10.70;9.60;;;9.20;93.80;;;;;;4902111;29;20493;-81
2021/04/30 08:45:46;;;;;;;11.03;9.93;;;9.20;94.10;;;;;;4902232;29;20464;-81
2021/04/30 08:48:14;;;;;;;11.30;10.20;;;9.30;94.40;;;;;;4901577;29;20472;-81
2021/04/30 08:50:40;;;;;;;10.60;9.37;;;9.50;94.30;;;;;;4901745;29;20497;-81
2021/04/30 08:53:07;;;;;;;12.70;11.20;;;9.80;94.30;;;;;;4901882;29;20887;-81
2021/04/30 08:55:34;;;;;;;9.70;8.80;;;10.00;93.50;;;;;;4901879;29;20458;-81
2021/04/30 08:58:05;;;;;;;11.47;10.20;;;10.10;92.80;;;;;;4902534;29;20470;-80
2021/04/30 09:00:31;;;;;;;10.93;9.83;;;10.10;92.60;;;;;;4902026;29;20454;-81
2021/04/30 09:02:59;;;;;;;11.27;9.03;;;10.20;92.50;;;;;;4902124;29;20849;-81
2021/04/30 09:05:27;;;;;;;13.20;9.83;;;10.20;92.60;;;;;;4901735;29;20813;-80
2021/04/30 09:07:55;;;;;;;9.63;8.73;;;9.90;92.80;;;;;;4906164;29;20495;-81
2021/04/30 09:10:22;;;;;;;11.80;10.60;;;9.90;93.20;;;;;;4908477;29;20586;-81
2021/04/30 09:13:04;;;;;;;15.47;11.77;;;10.00;92.90;;;;;;4890554;29;20937;-80
2021/04/30 09:15:30;;;;;;;11.57;10.37;;;9.80;92.90;;;;;;4879410;29;20494;-80
2021/04/30 09:18:15;;;;;;;12.20;10.00;;;9.60;93.20;;;;;;4880157;29;20473;-81
2021/04/30 09:20:42;;;;;;;11.67;10.57;;;9.40;93.60;;;;;;4880386;29;20238;-81
2021/04/30 09:23:29;;;;;;;11.57;10.10;;;9.30;94.00;;;;;;4879788;29;20472;-79
2021/04/30 09:25:55;;;;;;;11.75;10.55;;;9.30;94.50;;;;;;4881506;29;20462;-81
2021/04/30 09:28:22;;;;;;;14.27;11.70;;;9.20;94.70;;;;;;4880921;29;20246;-81
2021/04/30 09:30:49;;;;;;;11.63;10.43;;;9.10;95.10;;;;;;4880590;29;20244;-81
2021/04/30 09:33:16;;;;;;;10.80;9.70;;;8.90;95.40;;;;;;4880398;29;20481;-81
2021/04/30 09:35:43;;;;;;;12.95;11.13;;;8.80;95.80;;;;;;4880618;29;20213;-81
2021/04/30 09:38:18;;;;;;;12.07;10.85;;;8.80;96.10;;;;;;4881089;29;20691;-80
2021/04/30 09:40:46;;;;;;;12.05;10.82;;;8.90;96.20;;;;;;4880392;29;20220;-80
2021/04/30 09:43:14;;;;;;;12.63;10.88;;;9.00;96.10;;;;;;4880159;29;20809;-81
2021/04/30 09:45:44;;;;;;;11.93;10.88;;;8.90;96.00;;;;;;4879538;29;20212;-80
2021/04/30 09:48:13;;;;;;;14.63;10.57;;;8.90;96.10;;;;;;4880480;29;20216;-81
2021/04/30 09:50:41;;;;;;;10.10;9.10;;;8.80;96.20;;;;;;4880748;29;20212;-81
2021/04/30 09:53:09;;;;;;;12.35;11.18;;;8.80;96.40;;;;;;4880856;29;20232;-82
2021/04/30 09:55:43;;;;;;;12.70;10.80;;;8.90;96.60;;;;;;4881094;29;20229;-80
2021/04/30 09:58:18;;;;;;;11.57;10.35;;;9.00;96.50;;;;;;4880444;29;20844;-80
2021/04/30 10:00:48;;;;;;;14.95;12.18;;;8.90;96.60;;;;;;4880161;29;20224;-80
2021/04/30 10:03:19;;;;;;;11.68;10.43;;;9.10;96.80;;;;;;4881823;29;20809;-79
2021/04/30 10:06:03;;;;;;;12.20;10.67;;;9.20;97.00;;;;;;4881287;29;20301;-80
2021/04/30 10:08:30;;;;;;;12.57;11.27;;;9.20;96.90;;;;;;4882213;29;20461;-80
2021/04/30 10:10:57;;;;;;;11.57;10.30;;;9.30;97.00;;;;;;4881421;29;20258;-81
2021/04/30 10:13:24;;;;;;;12.80;11.60;;;9.30;97.20;;;;;;4881157;29;20477;-81
2021/04/30 10:15:51;;;;;;;12.73;11.43;;;9.30;97.90;;;;;;4881272;29;20466;-80
2021/04/30 10:18:18;;;;;;;13.90;12.50;;;9.40;98.80;;;;;;4880823;29;20470;-81
2021/04/30 10:20:45;;;;;;;13.52;12.13;;;9.40;99.10;;;;;;4882470;29;20495;-79
2021/04/30 10:23:16;;;;;;;12.90;11.70;;;9.20;98.70;;;;;;4882079;29;20300;-80
2021/04/30 10:25:45;;;;;;;13.70;12.40;;;9.00;99.30;;;;;;4883214;29;20459;-81
2021/04/30 10:28:13;;;;;;;15.10;13.50;;;9.00;99.50;;;;;;4884755;29;20244;-79
2021/04/30 10:30:47;;;;;;;15.48;13.57;;;9.00;99.90;;;;;;4885421;29;20460;-80
2021/04/30 10:33:20;;;;;;;14.13;12.68;;;8.70;99.90;;;;;;4875919;29;20228;-81
2021/04/30 10:35:52;;;;;;;14.88;13.27;;;8.60;99.90;;;;;;4885661;29;20216;-79
2021/04/30 10:38:22;;;;;;;17.42;14.77;;;8.50;99.90;;;;;;4884779;29;20216;-81
2021/04/30 10:40:52;;;;;;;15.32;13.63;;;8.30;99.90;;;;;;4885466;29;20700;-79
2021/04/30 10:43:20;;;;;;;19.23;16.65;;;8.10;99.90;;;;;;4884986;29;20248;-80
2021/04/30 10:46:22;;;;;;;18.52;15.35;;;8.10;99.90;;;;;;4885594;29;20213;-82
2021/04/30 10:49:16;;;;;;;20.75;18.35;;;8.00;99.90;;;;;;4875450;29;20234;-85
2021/04/30 10:51:44;;;;;;;18.15;15.07;;;7.70;99.90;;;;;;4885803;29;20777;-81
2021/04/30 10:54:24;;;;;;;11.20;10.13;;;7.70;99.90;;;;;;4886325;29;20224;-82
2021/04/30 10:56:57;;;;;;;20.27;18.27;;;7.60;99.90;;;;;;4884621;29;20220;-82
2021/04/30 10:59:27;;;;;;;16.30;14.63;;;7.50;99.90;;;;;;4884417;29;20663;-81
2021/04/30 11:02:01;;;;;;;21.58;18.15;;;7.30;99.90;;;;;;4883794;29;20243;-81
2021/04/30 11:04:29;;;;;;;25.85;20.52;;;7.20;99.90;;;;;;4884072;29;20223;-81
2021/04/30 11:06:55;;;;;;;26.25;20.42;;;7.20;99.90;;;;;;4884859;29;20221;-82
2021/04/30 11:09:33;;;;;;;20.17;15.32;;;7.20;99.90;;;;;;4884723;29;20207;-82
2021/04/30 11:12:01;;;;;;;24.75;19.77;;;7.10;99.90;;;;;;4885052;29;20250;-81
2021/04/30 11:14:32;;;;;;;26.65;20.15;;;6.80;99.90;;;;;;4885279;29;20208;-83
2021/04/30 11:17:00;;;;;;;19.70;17.23;;;6.70;99.90;;;;;;4885317;29;20352;-84
2021/04/30 11:19:32;;;;;;;21.10;18.33;;;6.60;99.90;;;;;;4886233;29;20219;-86
2021/04/30 11:22:11;;;;;;;21.27;17.65;;;6.50;99.90;;;;;;4889117;29;20237;-84
2021/04/30 11:25:07;;;;;;;22.98;17.20;;;6.50;99.90;;;;;;4894994;29;20274;-84
2021/04/30 11:34:25;;;;;;;28.05;19.40;;;6.60;99.90;;;;;;4746696;30;20366;-85
2021/04/30 11:37:20;;;;;;;32.53;23.48;;;6.60;99.90;;;;;;4812445;29;20218;-86
2021/04/30 11:39:49;;;;;;;23.95;18.42;;;6.60;99.90;;;;;;4875997;29;20235;-83
2021/04/30 11:42:36;;;;;;;26.45;20.95;;;6.60;99.90;;;;;;4889110;29;20863;-84
2021/04/30 11:45:32;;;;;;;18.70;16.77;;;6.60;99.90;;;;;;4876426;29;20564;-84
2021/04/30 11:55:32;;;;;;;26.50;17.27;;;6.50;99.90;;;;;;4758338;29;20216;-85
2021/04/30 12:44:59;;;;;;;22.55;15.95;;;6.50;99.90;;;;;;4916229;29;20241;-85
2021/04/30 12:47:26;;;;;;;22.42;16.48;;;6.50;99.90;;;;;;4917975;29;20250;-85
2021/04/30 12:49:53;;;;;;;26.40;18.10;;;6.60;99.90;;;;;;4918683;29;20231;-85
2021/04/30 12:52:22;;;;;;;20.48;18.42;;;6.60;99.90;;;;;;4918572;29;20780;-84
2021/04/30 12:54:48;;;;;;;18.85;16.83;;;6.70;99.90;;;;;;4919306;29;20581;-84
2021/04/30 13:42:06;;;;;;;18.98;16.40;;;6.80;99.90;;;;;;4677854;30;20320;-87
2021/04/30 13:45:05;;;;;;;;;;;;;;;;;;;;;
2021/04/30 13:47:37;;;;;;;20.27;17.65;;;6.90;99.90;;;;;;4836125;29;20222;-87
2021/04/30 13:50:09;;;;;;;21.33;17.90;;;6.90;99.90;;;;;;4878272;29;20208;-86
2021/04/30 13:52:36;;;;;;;20.40;18.13;;;7.00;99.90;;;;;;4928754;29;20235;-86
2021/04/30 13:55:06;;;;;;;20.92;18.50;;;7.00;99.90;;;;;;4939991;29;20300;-87
2021/04/30 13:57:41;;;;;;;19.70;17.60;;;7.00;99.90;;;;;;4942442;29;20233;-85
2021/04/30 14:00:12;;;;;;;18.00;16.20;;;7.10;99.90;;;;;;4958993;29;20419;-85
2021/04/30 14:02:53;;;;;;;21.67;17.98;;;7.10;99.90;;;;;;4961318;29;20224;-85
2021/04/30 14:05:38;;;;;;;22.77;19.05;;;7.20;99.90;;;;;;4961435;29;20208;-85
2021/04/30 14:08:04;;;;;;;23.23;17.92;;;7.20;99.90;;;;;;4944823;29;20554;-87
2021/04/30 14:10:38;;;;;;;22.92;20.27;;;7.30;99.90;;;;;;4944684;29;20233;-87
2021/04/30 14:13:40;;;;;;;24.63;19.95;;;7.30;99.90;;;;;;4944346;29;20318;-86
2021/04/30 14:16:23;;;;;;;22.55;17.77;;;7.40;99.90;;;;;;4944047;29;20217;-86
2021/04/30 14:18:56;;;;;;;20.17;17.45;;;7.50;99.90;;;;;;4944590;29;20213;-87
2021/04/30 14:21:30;;;;;;;23.45;19.55;;;7.60;99.90;;;;;;4944173;29;20241;-86
2021/04/30 14:24:09;;;;;;;25.60;21.23;;;7.60;99.90;;;;;;4944426;29;20205;-86
2021/04/30 14:26:43;;;;;;;19.65;17.63;;;7.70;99.90;;;;;;4944459;29;20197;-86
2021/04/30 14:29:14;;;;;;;23.38;19.88;;;7.70;99.90;;;;;;4945096;29;20225;-86
2021/04/30 14:31:42;;;;;;;21.67;19.23;;;7.70;99.90;;;;;;4944333;29;20261;-86
2021/04/30 14:34:08;;;;;;;21.83;18.30;;;7.60;99.90;;;;;;4945030;29;20212;-87
2021/04/30 14:36:41;;;;;;;21.05;18.85;;;7.60;99.90;;;;;;4944945;29;20221;-86
2021/04/30 14:39:13;;;;;;;20.05;17.95;;;7.60;99.90;;;;;;4944119;29;20297;-86
2021/04/30 14:41:49;;;;;;;20.92;18.40;;;7.50;99.90;;;;;;4946717;29;20285;-87
2021/04/30 14:50:36;;;;;;;21.42;16.13;;;7.30;99.90;;;;;;4868117;29;20185;-88
2021/04/30 14:53:26;;;;;;;19.77;16.60;;;7.30;99.90;;;;;;4866147;29;20247;-84
2021/04/30 15:05:52;;;;;;;19.42;17.33;;;7.70;99.90;;;;;;4930114;29;20221;-86
2021/04/30 15:08:20;;;;;;;21.83;18.13;;;7.80;99.90;;;;;;4944657;29;20213;-86
2021/04/30 15:10:49;;;;;;;23.35;19.65;;;8.00;99.90;;;;;;4943937;29;20745;-86
2021/04/30 15:13:15;;;;;;;22.13;19.80;;;8.00;99.90;;;;;;4946121;29;20388;-86
2021/04/30 15:15:42;;;;;;;22.67;19.13;;;8.10;99.90;;;;;;4944910;29;20210;-86
2021/04/30 15:18:08;;;;;;;20.52;18.40;;;8.10;99.90;;;;;;4943941;29;20589;-87
2021/04/30 15:20:34;;;;;;;22.65;18.23;;;8.10;99.90;;;;;;4944328;29;20230;-86
2021/04/30 15:23:01;;;;;;;22.38;19.40;;;8.00;99.90;;;;;;4945298;29;20235;-86
2021/04/30 15:25:28;;;;;;;22.85;20.45;;;7.90;99.90;;;;;;4943804;29;20212;-86
2021/04/30 15:27:54;;;;;;;21.95;17.83;;;7.90;99.90;;;;;;4942784;29;20212;-87
2021/04/30 15:30:22;;;;;;;21.73;17.92;;;7.90;99.90;;;;;;4942674;29;20213;-86
2021/04/30 15:32:49;;;;;;;20.13;18.02;;;7.80;99.90;;;;;;4945003;29;20233;-86
2021/04/30 15:35:16;;;;;;;25.85;19.67;;;7.90;99.90;;;;;;4942927;29;20213;-87
2021/04/30 15:37:42;;;;;;;24.13;20.17;;;7.90;99.90;;;;;;4945562;29;20217;-85
2021/04/30 15:40:11;;;;;;;30.05;22.77;;;8.00;99.90;;;;;;4944621;29;20226;-85
2021/04/30 15:42:40;;;;;;;23.92;20.80;;;8.00;99.90;;;;;;4942588;29;20578;-86
2021/04/30 15:45:22;;;;;;;20.58;18.40;;;8.00;99.90;;;;;;4940612;29;20204;-88
2021/04/30 15:47:49;;;;;;;27.83;20.83;;;8.10;99.90;;;;;;4941421;29;20241;-87
2021/04/30 15:50:16;;;;;;;23.13;19.77;;;8.20;99.90;;;;;;4942259;29;20845;-84
2021/04/30 15:52:43;;;;;;;22.02;19.83;;;8.10;99.90;;;;;;4941641;29;20741;-87
2021/04/30 15:58:40;;;;;;;;;;;;;;;;;;;;;
2021/04/30 16:01:17;;;;;;;;;;;;;;;;;;;;;
2021/04/30 16:03:59;;;;;;;22.42;20.08;;;8.10;99.90;;;;;;4935792;29;20297;-87
2021/04/30 16:06:33;;;;;;;25.00;22.42;;;8.10;99.90;;;;;;4941907;29;20252;-83
2021/04/30 16:09:39;;;;;;;26.80;22.75;;;8.10;99.90;;;;;;4939921;29;20198;-84
2021/04/30 16:12:47;;;;;;;27.38;21.08;;;8.10;99.90;;;;;;4879967;29;20677;-85
2021/04/30 16:15:31;;;;;;;29.92;22.85;;;8.20;99.90;;;;;;4933298;29;20224;-83
2021/04/30 16:17:57;;;;;;;24.10;21.50;;;8.20;99.90;;;;;;4939505;29;20202;-84
2021/04/30 16:20:24;;;;;;;23.02;19.45;;;8.20;99.90;;;;;;4939419;29;20313;-84
2021/04/30 16:22:50;;;;;;;23.30;20.80;;;8.30;99.90;;;;;;4938155;29;20233;-85
2021/04/30 16:25:23;;;;;;;24.42;20.00;;;8.40;99.90;;;;;;4939446;29;20205;-85
2021/04/30 16:28:26;;;;;;;23.30;20.80;;;8.40;99.90;;;;;;4937476;29;20568;-84
2021/04/30 16:31:23;;;;;;;28.08;23.00;;;8.50;99.90;;;;;;4887182;29;20297;-85
2021/04/30 16:34:01;;;;;;;23.58;20.63;;;8.40;99.90;;;;;;4887241;29;20203;-84
2021/04/30 16:36:35;;;;;;;22.13;18.92;;;8.40;99.90;;;;;;4904093;29;20333;-83
2021/04/30 16:39:12;;;;;;;24.35;20.08;;;8.50;99.90;;;;;;4938182;29;20695;-84
2021/04/30 16:41:42;;;;;;;22.20;19.83;;;8.50;99.90;;;;;;4937725;29;20649;-84
2021/04/30 16:44:32;;;;;;;;;;;;;;;;;;;;;
2021/04/30 16:50:36;;;;;;;20.92;17.95;;;8.50;99.90;;;;;;4937202;29;20206;-84
2021/04/30 16:53:02;;;;;;;24.05;21.50;;;8.40;99.90;;;;;;4933119;29;20241;-84
2021/04/30 16:55:28;;;;;;;29.70;23.00;;;8.30;99.90;;;;;;4937360;29;20214;-84
2021/04/30 16:57:57;;;;;;;24.65;20.35;;;8.20;99.90;;;;;;4937800;29;20210;-85
2021/04/30 17:00:23;;;;;;;23.58;20.48;;;8.10;99.90;;;;;;4937697;29;20233;-85
2021/04/30 17:02:50;;;;;;;24.58;21.58;;;8.00;99.90;;;;;;4937274;29;20606;-84
2021/04/30 17:05:16;;;;;;;19.95;17.83;;;7.90;99.90;;;;;;4937069;29;20221;-82
2021/04/30 17:07:43;;;;;;;51.72;36.47;;;7.90;99.90;;;;;;4937871;29;20217;-85
2021/04/30 17:10:10;;;;;;;24.38;20.75;;;7.90;99.90;;;;;;4937485;29;20207;-83
2021/04/30 17:12:36;;;;;;;31.65;25.15;;;7.80;99.90;;;;;;4937399;29;20268;-83
2021/04/30 17:15:03;;;;;;;29.52;21.48;;;7.60;99.90;;;;;;4937597;29;20220;-84
2021/04/30 17:17:29;;;;;;;23.63;19.33;;;7.60;99.90;;;;;;4937272;29;20698;-84
2021/04/30 17:19:56;;;;;;;27.88;23.92;;;7.50;99.90;;;;;;4937215;29;20213;-85
2021/04/30 17:22:22;;;;;;;25.08;21.50;;;7.50;99.90;;;;;;4937324;29;20239;-84
2021/04/30 17:24:53;;;;;;;30.60;26.20;;;7.40;99.90;;;;;;4937479;29;20238;-83
2021/04/30 17:27:20;;;;;;;27.90;24.77;;;7.30;99.90;;;;;;4937326;29;20659;-85
2021/04/30 17:29:46;;;;;;;28.00;23.42;;;7.30;99.90;;;;;;4937504;29;20312;-84
2021/04/30 17:32:12;;;;;;;30.33;25.38;;;7.40;99.90;;;;;;4937360;29;20226;-82
2021/04/30 17:34:38;;;;;;;31.58;23.92;;;7.40;99.90;;;;;;4928982;29;20695;-82
2021/04/30 17:37:05;;;;;;;30.30;22.90;;;7.40;99.90;;;;;;4922644;29;20210;-82
2021/04/30 17:39:33;;;;;;;28.15;21.63;;;7.40;99.90;;;;;;4922139;29;20214;-81
2021/04/30 17:41:59;;;;;;;25.73;22.92;;;7.30;99.90;;;;;;4959851;23;20258;-83
2021/04/30 17:44:25;;;;;;;31.17;25.77;;;7.30;99.90;;;;;;4927536;29;20230;-84
2021/04/30 17:46:51;;;;;;;29.65;24.33;;;7.30;99.90;;;;;;4928571;29;20861;-83
2021/04/30 17:49:17;;;;;;;31.80;26.13;;;7.40;99.90;;;;;;4928957;29;20218;-82
2021/04/30 17:51:43;;;;;;;32.63;24.00;;;7.30;99.90;;;;;;4928061;29;20206;-80